Time;durP1;ratioP1;P1;durP2;ratioP2;P2;SDS_P1;SDS_P2;PMS_P1;PMS_P2;Temp;Humidity;BMP_temperature;BMP_pressure;BME280_temperature;BME280_humidity;BME280_pressure;Samples;Min_cycle;Max_cycle;Signal;HPM_P1;HPM_P2
2021/12/05 00:18:14;;;;;;;1.25;1.25;;;3.50;99.90;;;;;;5053294;28;20051;-88
2021/12/05 00:23:15;;;;;;;1.65;1.60;;;3.50;99.90;;;;;;5053395;28;20059;-87
2021/12/05 00:25:47;;;;;;;2.20;2.00;;;3.40;99.90;;;;;;5036054;28;20049;-87
2021/12/05 00:28:41;;;;;;;2.80;2.05;;;3.50;99.90;;;;;;5035950;28;20080;-87
2021/12/05 00:31:38;;;;;;;2.05;1.95;;;3.40;99.90;;;;;;5053282;28;20049;-87
2021/12/05 00:50:17;;;;;;;1.95;1.85;;;3.00;99.90;;;;;;5053390;28;20049;-87
2021/12/05 00:55:41;;;;;;;5.10;2.72;;;3.00;99.90;;;;;;5053116;28;20053;-87
2021/12/05 01:04:16;;;;;;;4.78;3.67;;;3.00;99.90;;;;;;5053103;28;20100;-88
2021/12/05 01:07:03;;;;;;;5.63;4.85;;;2.90;99.90;;;;;;5052764;28;20386;-88
2021/12/05 01:09:35;;;;;;;5.40;3.50;;;2.80;99.90;;;;;;5053028;28;20056;-87
2021/12/05 01:12:20;;;;;;;2.78;2.50;;;2.60;99.90;;;;;;5035626;28;20067;-88
2021/12/05 01:17:31;;;;;;;3.30;2.20;;;2.30;99.90;;;;;;5052918;28;20128;-88
2021/12/05 01:19:58;;;;;;;3.60;2.47;;;2.10;99.90;;;;;;5035520;28;20061;-87
2021/12/05 01:22:27;;;;;;;3.83;2.60;;;2.00;99.90;;;;;;5035132;28;20501;-88
2021/12/05 01:27:47;;;;;;;2.95;2.65;;;1.80;99.90;;;;;;5054477;28;20049;-87
2021/12/05 01:30:35;;;;;;;5.45;2.75;;;1.70;99.90;;;;;;5056857;28;20053;-88
2021/12/05 01:33:20;;;;;;;5.47;2.67;;;1.60;99.90;;;;;;5038929;28;20044;-88
2021/12/05 01:35:57;;;;;;;3.78;2.55;;;1.60;99.90;;;;;;5039309;28;20107;-88
2021/12/05 01:38:44;;;;;;;6.50;2.50;;;1.50;99.90;;;;;;5038954;28;20068;-88
2021/12/05 01:50:02;;;;;;;4.32;3.00;;;1.00;99.90;;;;;;5025426;28;20067;-88
2021/12/05 02:11:21;;;;;;;7.22;4.18;;;0.90;99.90;;;;;;5055969;28;20049;-85
2021/12/05 02:30:57;;;;;;;5.47;3.85;;;0.60;99.90;;;;;;5036390;28;20136;-87
2021/12/05 02:34:12;;;;;;;13.18;6.13;;;0.50;99.90;;;;;;5037713;28;20057;-84
2021/12/05 02:41:29;;;;;;;10.45;5.32;;;0.60;99.90;;;;;;5055301;28;20140;-85
2021/12/05 02:44:02;;;;;;;13.27;6.88;;;0.70;99.90;;;;;;5038232;28;20045;-84
2021/12/05 02:46:29;;;;;;;15.10;6.75;;;0.90;99.90;;;;;;5037721;28;20041;-85
2021/12/05 02:49:04;;;;;;;7.75;5.13;;;0.80;99.90;;;;;;5037626;28;20095;-85
2021/12/05 02:51:33;;;;;;;7.55;4.50;;;0.80;99.90;;;;;;5037643;28;20128;-85
2021/12/05 02:54:15;;;;;;;11.90;5.85;;;0.80;99.90;;;;;;5037697;28;20056;-87
2021/12/05 02:56:46;;;;;;;10.73;5.65;;;0.80;99.90;;;;;;5037694;28;20045;-87
2021/12/05 03:01:57;;;;;;;9.20;5.32;;;0.80;99.90;;;;;;5055158;28;20114;-87
2021/12/05 03:04:29;;;;;;;12.05;6.15;;;0.90;99.90;;;;;;5036924;28;20063;-87
2021/12/05 03:06:56;;;;;;;10.25;5.50;;;1.00;99.90;;;;;;5037102;28;20080;-87
2021/12/05 03:09:24;;;;;;;11.02;5.78;;;1.10;99.90;;;;;;5037273;28;20052;-88
2021/12/05 03:11:53;;;;;;;13.40;6.38;;;1.20;99.90;;;;;;5037173;28;20047;-87
2021/12/05 03:14:20;;;;;;;12.35;7.13;;;1.30;99.90;;;;;;5037075;28;20049;-87
2021/12/05 03:16:47;;;;;;;10.82;6.50;;;1.40;99.90;;;;;;5054533;28;20052;-85
2021/12/05 03:19:16;;;;;;;6.50;5.75;;;1.40;99.90;;;;;;5036729;28;20098;-87
2021/12/05 03:21:45;;;;;;;10.90;6.68;;;1.40;99.90;;;;;;5054727;28;20517;-87
2021/12/05 03:24:14;;;;;;;12.77;6.88;;;1.30;99.90;;;;;;5036726;28;20052;-87
2021/12/05 03:26:46;;;;;;;9.02;5.30;;;1.30;99.90;;;;;;5054143;28;20481;-84
2021/12/05 03:29:15;;;;;;;13.13;6.03;;;1.30;99.90;;;;;;5036831;28;20053;-87
2021/12/05 03:31:42;;;;;;;8.57;4.97;;;1.20;99.90;;;;;;5037016;28;20088;-85
2021/12/05 03:34:11;;;;;;;9.32;6.35;;;1.20;99.90;;;;;;5054120;28;20061;-84
2021/12/05 03:36:41;;;;;;;12.20;5.28;;;1.20;99.90;;;;;;5036741;28;20084;-85
2021/12/05 03:39:09;;;;;;;6.25;4.65;;;1.30;99.90;;;;;;5036150;28;20133;-84
2021/12/05 03:41:37;;;;;;;10.02;5.07;;;1.30;99.90;;;;;;5053794;28;20055;-85
2021/12/05 03:44:06;;;;;;;12.52;5.78;;;1.30;99.90;;;;;;5036204;28;20057;-84
2021/12/05 03:46:34;;;;;;;15.27;5.60;;;1.40;99.90;;;;;;5036568;28;20163;-87
2021/12/05 03:49:07;;;;;;;7.05;4.70;;;1.40;99.90;;;;;;5054017;28;20103;-86
2021/12/05 03:51:36;;;;;;;10.05;5.10;;;1.50;99.90;;;;;;5035785;28;20416;-85
2021/12/05 03:54:05;;;;;;;7.22;4.35;;;1.40;99.90;;;;;;5036252;28;20099;-84
2021/12/05 03:56:35;;;;;;;6.72;4.45;;;1.30;99.90;;;;;;5035783;28;20135;-84
2021/12/05 03:59:04;;;;;;;9.07;4.72;;;1.30;99.90;;;;;;5053957;28;20071;-86
2021/12/05 04:01:31;;;;;;;7.72;3.92;;;1.20;99.90;;;;;;5053749;28;20049;-87
2021/12/05 04:03:59;;;;;;;8.63;4.82;;;1.00;99.90;;;;;;5053590;28;20053;-87
2021/12/05 04:06:27;;;;;;;7.18;5.22;;;0.80;99.90;;;;;;5036018;28;20059;-84
2021/12/05 04:08:59;;;;;;;6.85;4.40;;;0.80;99.90;;;;;;5053171;28;20052;-85
2021/12/05 04:11:36;;;;;;;6.10;3.70;;;0.70;99.90;;;;;;5035817;28;20059;-87
2021/12/05 04:14:06;;;;;;;6.80;3.72;;;0.60;99.90;;;;;;5035679;28;20059;-84
2021/12/05 04:16:34;;;;;;;6.00;4.00;;;0.50;99.90;;;;;;5053281;28;20048;-84
2021/12/05 04:19:02;;;;;;;6.18;4.22;;;0.50;99.90;;;;;;5035645;28;20049;-87
2021/12/05 04:21:30;;;;;;;6.88;4.90;;;0.50;99.90;;;;;;5035526;28;20620;-87
2021/12/05 04:23:59;;;;;;;19.08;11.10;;;0.40;99.90;;;;;;5035601;28;20061;-87
2021/12/05 04:26:26;;;;;;;24.30;13.18;;;0.40;99.90;;;;;;5035582;28;20420;-84
2021/12/05 04:28:54;;;;;;;17.25;8.80;;;0.50;99.90;;;;;;5035403;28;20059;-87
2021/12/05 04:31:21;;;;;;;6.75;5.80;;;0.50;99.90;;;;;;5035632;28;20048;-87
2021/12/05 04:33:49;;;;;;;7.82;4.82;;;0.50;99.90;;;;;;5035456;28;20045;-87
2021/12/05 04:36:18;;;;;;;18.58;11.18;;;0.50;99.90;;;;;;5035552;28;20386;-87
2021/12/05 04:38:46;;;;;;;53.13;31.45;;;0.50;99.90;;;;;;5052796;28;20059;-84
2021/12/05 04:41:13;;;;;;;25.33;14.40;;;0.50;99.90;;;;;;5052953;28;20140;-83
2021/12/05 04:43:41;;;;;;;12.40;8.98;;;0.50;99.90;;;;;;5035497;28;20123;-87
2021/12/05 04:46:13;;;;;;;10.93;7.93;;;0.50;99.90;;;;;;5035604;28;20132;-86
2021/12/05 04:48:43;;;;;;;5.70;4.95;;;0.40;99.90;;;;;;5052837;28;20481;-85
2021/12/05 04:51:10;;;;;;;9.43;5.07;;;0.40;99.90;;;;;;5053218;28;20076;-85
2021/12/05 04:53:37;;;;;;;9.65;5.20;;;0.30;99.90;;;;;;5052753;28;20045;-84
2021/12/05 04:56:05;;;;;;;8.18;5.07;;;0.20;99.90;;;;;;5052873;28;20136;-84
2021/12/05 04:58:33;;;;;;;6.25;4.35;;;0.20;99.90;;;;;;5052578;28;20153;-86
2021/12/05 05:01:01;;;;;;;8.98;4.63;;;0.20;99.90;;;;;;5035140;28;20053;-86
2021/12/05 05:03:28;;;;;;;6.72;5.85;;;0.20;99.90;;;;;;5038904;28;20131;-86
2021/12/05 05:06:05;;;;;;;11.80;6.72;;;0.30;99.90;;;;;;5057116;28;20207;-87
2021/12/05 05:08:32;;;;;;;9.63;5.22;;;0.30;99.90;;;;;;5039088;28;20060;-87
2021/12/05 05:11:02;;;;;;;11.88;4.72;;;0.30;99.90;;;;;;5039206;28;20053;-83
2021/12/05 05:13:30;;;;;;;10.00;4.40;;;0.30;99.90;;;;;;5056903;28;20055;-86
2021/12/05 05:15:57;;;;;;;5.03;4.03;;;0.40;99.90;;;;;;5039794;28;20049;-86
2021/12/05 05:18:31;;;;;;;6.05;4.13;;;0.30;99.90;;;;;;5038981;28;20347;-86
2021/12/05 05:21:08;;;;;;;7.63;4.28;;;0.30;99.90;;;;;;5039173;28;20059;-86
2021/12/05 05:24:08;;;;;;;6.35;3.83;;;0.30;99.90;;;;;;5056560;28;20053;-86
2021/12/05 05:47:39;;;;;;;4.65;4.15;;;0.10;99.90;;;;;;5056373;28;20041;-87
2021/12/05 05:50:06;;;;;;;5.18;3.58;;;0.10;99.90;;;;;;5038528;28;20045;-87
2021/12/05 05:52:33;;;;;;;7.30;4.38;;;0.20;99.90;;;;;;5038591;28;20045;-87
2021/12/05 05:55:00;;;;;;;7.00;4.47;;;0.10;99.90;;;;;;5038517;28;20412;-86
2021/12/05 05:57:41;;;;;;;9.93;5.60;;;0.20;99.90;;;;;;5038357;28;20049;-87
2021/12/05 06:00:18;;;;;;;7.78;5.47;;;0.20;99.90;;;;;;5038386;28;20123;-86
2021/12/05 06:05:33;;;;;;;14.13;8.60;;;0.40;99.90;;;;;;5055784;28;20119;-87
2021/12/05 06:08:00;;;;;;;8.75;5.38;;;0.50;99.90;;;;;;5038197;28;20131;-87
2021/12/05 06:10:30;;;;;;;6.75;5.15;;;0.50;99.90;;;;;;5055526;28;20140;-87
2021/12/05 06:12:58;;;;;;;8.60;5.07;;;0.50;99.90;;;;;;5037894;28;20053;-87
2021/12/05 06:15:28;;;;;;;10.38;5.13;;;0.60;99.90;;;;;;5037802;28;20056;-87
2021/12/05 06:17:55;;;;;;;9.27;6.00;;;0.50;99.90;;;;;;5038060;28;20052;-87
2021/12/05 06:20:25;;;;;;;7.82;5.22;;;0.60;99.90;;;;;;5054984;28;20235;-87
2021/12/05 06:22:59;;;;;;;7.28;5.20;;;0.60;99.90;;;;;;5055441;28;20132;-87
2021/12/05 06:25:27;;;;;;;10.35;5.55;;;0.70;99.90;;;;;;5055312;28;20163;-87
2021/12/05 06:27:59;;;;;;;11.07;6.38;;;0.60;99.90;;;;;;5037796;28;20049;-86
2021/12/05 06:30:36;;;;;;;19.77;12.25;;;0.70;99.90;;;;;;5038906;28;20140;-86
2021/12/05 06:38:59;;;;;;;37.38;22.27;;;0.70;99.90;;;;;;5055480;28;20075;-87
2021/12/05 06:46:58;;;;;;;11.90;7.95;;;0.70;99.90;;;;;;5054994;28;20049;-87
2021/12/05 06:49:25;;;;;;;11.55;6.15;;;0.70;99.90;;;;;;5037196;28;20053;-87
2021/12/05 06:51:51;;;;;;;12.88;5.30;;;0.70;99.90;;;;;;5054768;28;20052;-86
2021/12/05 06:54:18;;;;;;;10.70;6.05;;;0.80;99.90;;;;;;5037482;28;20053;-89
2021/12/05 06:56:45;;;;;;;9.38;4.85;;;0.80;99.90;;;;;;5055195;28;20483;-88
2021/12/05 06:59:12;;;;;;;7.03;4.82;;;0.80;99.90;;;;;;5037446;28;20496;-88
2021/12/05 07:01:38;;;;;;;8.55;4.65;;;0.80;99.90;;;;;;5037472;28;20552;-88
2021/12/05 07:04:15;;;;;;;7.57;4.53;;;0.80;99.90;;;;;;5037195;28;20053;-88
2021/12/05 07:06:43;;;;;;;11.95;5.15;;;0.80;99.90;;;;;;5037405;28;20047;-88
2021/12/05 07:09:11;;;;;;;9.50;4.75;;;0.70;99.90;;;;;;5037148;28;20067;-88
2021/12/05 07:14:34;;;;;;;14.15;6.30;;;0.90;99.90;;;;;;5054188;28;20061;-88
2021/12/05 07:17:08;;;;;;;12.10;5.65;;;0.90;99.90;;;;;;5036856;28;20051;-88
2021/12/05 07:22:23;;;;;;;10.40;5.50;;;1.00;99.90;;;;;;5055101;28;20045;-90
2021/12/05 07:25:01;;;;;;;9.95;6.25;;;1.10;99.90;;;;;;5055644;28;20089;-90
2021/12/05 07:41:39;;;;;;;10.80;7.40;;;1.20;99.90;;;;;;5053514;28;20044;-89
2021/12/05 07:44:06;;;;;;;12.73;8.57;;;1.20;99.90;;;;;;5036105;28;20091;-90
2021/12/05 07:46:33;;;;;;;13.13;7.95;;;1.30;99.90;;;;;;5036057;28;20497;-90
2021/12/05 07:49:00;;;;;;;10.73;7.55;;;1.40;99.90;;;;;;5054610;28;20053;-90
2021/12/05 07:51:28;;;;;;;11.35;7.10;;;1.50;99.90;;;;;;5037457;28;20488;-89
2021/12/05 07:59:45;;;;;;;9.73;6.93;;;1.60;99.90;;;;;;5053288;28;20063;-90
2021/12/05 08:16:07;;;;;;;12.90;9.00;;;1.80;99.90;;;;;;5053234;28;20055;-90
2021/12/05 08:18:40;;;;;;;13.52;9.38;;;1.90;99.90;;;;;;5036315;28;20068;-89
2021/12/05 08:21:08;;;;;;;17.05;10.95;;;2.00;99.90;;;;;;5035472;28;20401;-90
2021/12/05 08:23:35;;;;;;;19.05;9.82;;;2.10;99.90;;;;;;5053008;28;20412;-89
2021/12/05 08:26:14;;;;;;;25.80;10.32;;;2.10;99.90;;;;;;5035696;28;20083;-90
2021/12/05 08:44:15;;;;;;;27.75;15.98;;;2.40;99.90;;;;;;5055414;28;20403;-91
2021/12/05 09:21:59;;;;;;;8.05;4.07;;;2.80;99.90;;;;;;5082442;28;20107;-82
2021/12/05 10:01:58;;;;;;;5.20;2.58;;;4.50;99.90;;;;;;5083007;28;20059;-80
2021/12/05 10:11:05;;;;;;;5.13;1.30;;;4.90;99.90;;;;;;5089209;28;20079;-83
2021/12/05 10:26:34;;;;;;;4.82;2.75;;;6.10;99.90;;;;;;5087565;28;20041;-83
2021/12/05 10:38:05;;;;;;;16.40;2.40;;;5.70;99.90;;;;;;5083120;28;20053;-77
2021/12/05 10:41:02;;;;;;;8.02;2.08;;;5.70;99.90;;;;;;5063949;28;20513;-80
2021/12/05 10:43:31;;;;;;;6.10;1.92;;;5.80;99.90;;;;;;5062028;28;20098;-77
2021/12/05 10:46:07;;;;;;;5.53;2.28;;;5.90;99.90;;;;;;5080302;28;20102;-79
2021/12/05 10:48:37;;;;;;;5.47;1.90;;;6.00;99.90;;;;;;5064687;28;20048;-79
2021/12/05 10:51:27;;;;;;;2.97;1.50;;;6.00;99.90;;;;;;5080865;28;20072;-82
2021/12/05 10:54:07;;;;;;;4.03;1.15;;;6.00;99.90;;;;;;5063299;28;20052;-82
2021/12/05 10:56:36;;;;;;;3.08;1.10;;;5.80;99.90;;;;;;5066458;28;20139;-82
2021/12/05 10:59:07;;;;;;;4.25;1.45;;;5.70;99.90;;;;;;5062534;28;20057;-81
2021/12/05 11:01:40;;;;;;;6.07;2.22;;;5.60;99.90;;;;;;5062616;28;20509;-82
2021/12/05 11:04:21;;;;;;;4.20;2.05;;;5.50;99.90;;;;;;5062920;28;20051;-80
2021/12/05 11:06:50;;;;;;;6.43;1.38;;;5.40;99.90;;;;;;5080287;28;20053;-80
2021/12/05 11:09:17;;;;;;;7.10;1.35;;;5.30;99.90;;;;;;5063357;28;20054;-81
2021/12/05 11:11:47;;;;;;;4.03;1.38;;;5.30;99.90;;;;;;5063110;28;20481;-80
2021/12/05 11:14:21;;;;;;;7.00;1.40;;;5.20;99.90;;;;;;5079947;28;20049;-81
2021/12/05 11:16:57;;;;;;;2.60;1.25;;;5.20;99.90;;;;;;5067269;28;20067;-82
2021/12/05 11:19:29;;;;;;;3.72;1.10;;;5.10;99.90;;;;;;5040997;28;20103;-82
2021/12/05 11:22:16;;;;;;;5.13;1.10;;;5.20;99.90;;;;;;5060187;28;20053;-82
2021/12/05 11:24:48;;;;;;;3.35;1.20;;;5.50;99.90;;;;;;5034260;28;20049;-82
2021/12/05 11:27:27;;;;;;;7.10;1.65;;;5.90;99.90;;;;;;5059911;28;20056;-82
2021/12/05 11:29:57;;;;;;;4.07;1.15;;;6.20;99.90;;;;;;5041748;28;20140;-82
2021/12/05 11:32:33;;;;;;;4.15;1.17;;;6.50;99.90;;;;;;5058519;28;20124;-82
2021/12/05 11:35:31;;;;;;;5.93;1.05;;;6.70;99.90;;;;;;5041401;28;20049;-82
2021/12/05 11:37:58;;;;;;;4.47;1.30;;;6.80;99.90;;;;;;5042812;28;20056;-81
2021/12/05 11:40:43;;;;;;;4.57;0.90;;;6.80;99.90;;;;;;5043519;28;20049;-82
2021/12/05 11:43:19;;;;;;;3.40;0.90;;;6.80;99.90;;;;;;5027838;28;20076;-80
2021/12/05 11:46:07;;;;;;;4.05;1.00;;;6.70;99.90;;;;;;5023913;28;20398;-80
2021/12/05 11:48:41;;;;;;;4.32;1.10;;;6.70;99.90;;;;;;5037491;28;20046;-80
2021/12/05 11:51:33;;;;;;;2.10;1.00;;;6.80;99.90;;;;;;5039977;28;20077;-81
2021/12/05 11:54:19;;;;;;;2.80;1.23;;;6.70;99.90;;;;;;5023188;28;20049;-81
2021/12/05 11:57:24;;;;;;;4.85;1.05;;;6.60;99.90;;;;;;5026166;28;20046;-80
2021/12/05 12:00:03;;;;;;;4.78;1.20;;;6.40;99.90;;;;;;5043208;28;20107;-81
2021/12/05 12:02:37;;;;;;;4.07;1.10;;;6.30;99.90;;;;;;5021756;28;20069;-80
2021/12/05 12:05:13;;;;;;;6.53;1.45;;;6.30;99.90;;;;;;5037464;28;20072;-80
2021/12/05 12:08:05;;;;;;;6.32;1.42;;;6.30;99.90;;;;;;5023058;28;20041;-81
2021/12/05 12:10:37;;;;;;;6.63;1.38;;;6.00;99.90;;;;;;5022575;28;20049;-81
2021/12/05 12:13:19;;;;;;;5.45;1.10;;;6.10;99.90;;;;;;5022146;28;20053;-80
2021/12/05 12:15:58;;;;;;;2.00;1.08;;;6.20;99.90;;;;;;5039799;28;20119;-81
2021/12/05 12:18:32;;;;;;;6.97;1.40;;;6.20;99.90;;;;;;5021381;28;20128;-81
2021/12/05 12:21:11;;;;;;;5.50;1.20;;;6.20;99.90;;;;;;5021608;28;20125;-80
2021/12/05 12:23:40;;;;;;;13.32;1.70;;;6.10;99.90;;;;;;5038971;28;20087;-80
2021/12/05 12:26:10;;;;;;;3.92;1.30;;;6.20;99.90;;;;;;5039454;28;20472;-81
2021/12/05 12:28:38;;;;;;;6.65;1.55;;;6.20;99.90;;;;;;5020616;28;20049;-81
2021/12/05 12:31:13;;;;;;;7.65;1.50;;;6.10;99.90;;;;;;5021246;28;20057;-80
2021/12/05 12:33:49;;;;;;;4.32;1.42;;;6.10;99.90;;;;;;5038001;28;20103;-81
2021/12/05 12:36:37;;;;;;;4.85;1.23;;;6.10;99.90;;;;;;5020674;28;20060;-80
2021/12/05 12:39:19;;;;;;;5.47;1.15;;;5.90;99.90;;;;;;5022766;28;20045;-82
2021/12/05 12:42:10;;;;;;;3.85;1.27;;;5.90;99.90;;;;;;5022311;28;20099;-82
2021/12/05 12:44:37;;;;;;;4.13;1.30;;;5.80;99.90;;;;;;5022324;28;20053;-83
2021/12/05 12:47:07;;;;;;;3.92;1.40;;;5.70;99.90;;;;;;5023899;28;20045;-82
2021/12/05 12:49:38;;;;;;;5.07;1.45;;;5.80;99.90;;;;;;5045171;28;20045;-82
2021/12/05 12:52:09;;;;;;;3.90;1.90;;;5.80;99.90;;;;;;5021812;28;20045;-82
2021/12/05 12:54:44;;;;;;;2.08;0.90;;;5.90;99.90;;;;;;5022217;28;20064;-83
2021/12/05 12:57:22;;;;;;;4.65;1.17;;;5.90;99.90;;;;;;5022460;28;20132;-82
2021/12/05 13:00:00;;;;;;;3.10;1.17;;;5.80;99.90;;;;;;5037954;28;20073;-80
2021/12/05 13:03:02;;;;;;;2.17;1.13;;;5.70;99.90;;;;;;5019176;28;20069;-80
2021/12/05 13:11:27;;;;;;;1.00;0.90;;;5.70;99.90;;;;;;5037406;28;20057;-81
2021/12/05 13:14:04;;;;;;;4.32;1.70;;;5.80;99.90;;;;;;5019414;28;20049;-80
2021/12/05 13:16:35;;;;;;;6.55;4.38;;;5.70;99.90;;;;;;5019686;28;20590;-80
2021/12/05 13:19:13;;;;;;;13.38;6.47;;;5.60;99.90;;;;;;5020000;28;20068;-81
2021/12/05 13:21:43;;;;;;;20.17;11.88;;;5.50;99.90;;;;;;5019283;28;20058;-80
2021/12/05 13:24:34;;;;;;;17.73;10.35;;;5.40;99.90;;;;;;5022574;28;20095;-81
2021/12/05 13:27:07;;;;;;;12.18;7.10;;;5.40;99.90;;;;;;5024731;28;20095;-80
2021/12/05 13:29:48;;;;;;;13.27;8.02;;;5.40;99.90;;;;;;5043055;28;20049;-81
2021/12/05 13:32:25;;;;;;;12.52;7.68;;;5.40;99.90;;;;;;5024733;28;20415;-80
2021/12/05 13:35:02;;;;;;;2.33;1.50;;;5.30;99.90;;;;;;5025036;28;20545;-81
2021/12/05 13:37:47;;;;;;;4.45;2.00;;;5.10;99.90;;;;;;5041925;28;20075;-81
2021/12/05 13:40:26;;;;;;;1.05;0.75;;;5.10;99.90;;;;;;5024717;28;20053;-81
2021/12/05 13:42:57;;;;;;;2.17;1.00;;;5.00;99.90;;;;;;5025436;28;20092;-81
2021/12/05 13:45:27;;;;;;;6.85;2.38;;;5.00;99.90;;;;;;5024278;28;20057;-80
2021/12/05 13:47:58;;;;;;;7.28;4.93;;;5.00;99.90;;;;;;5024623;28;20118;-81
2021/12/05 13:50:50;;;;;;;3.28;1.75;;;5.00;99.90;;;;;;5023722;28;20483;-79
2021/12/05 13:53:21;;;;;;;4.78;3.38;;;4.80;99.90;;;;;;5033459;28;20061;-81
2021/12/05 13:55:54;;;;;;;6.78;2.45;;;4.80;99.90;;;;;;5024557;28;20046;-81
2021/12/05 13:58:34;;;;;;;3.20;1.20;;;4.80;99.90;;;;;;5023259;28;20418;-81
2021/12/05 14:01:30;;;;;;;6.85;2.28;;;4.80;99.90;;;;;;5041414;28;20056;-81
2021/12/05 14:04:15;;;;;;;3.88;1.10;;;4.60;99.90;;;;;;5024193;28;20046;-81
2021/12/05 14:06:53;;;;;;;6.15;1.40;;;4.70;99.90;;;;;;5023130;28;20056;-81
2021/12/05 14:09:40;;;;;;;4.30;1.42;;;4.60;99.90;;;;;;5023507;28;20049;-80
2021/12/05 14:12:18;;;;;;;3.45;1.33;;;4.50;99.90;;;;;;5022458;28;20074;-81
2021/12/05 14:14:46;;;;;;;3.58;1.20;;;4.60;99.90;;;;;;5027627;28;20050;-80
2021/12/05 14:17:15;;;;;;;4.15;1.27;;;4.60;99.90;;;;;;5026231;28;20054;-81
2021/12/05 14:19:53;;;;;;;4.03;1.35;;;4.50;99.90;;;;;;5041825;28;20056;-81
2021/12/05 14:22:23;;;;;;;2.92;1.27;;;4.60;99.90;;;;;;5042588;28;20107;-80
2021/12/05 14:24:53;;;;;;;4.18;1.10;;;4.60;99.90;;;;;;5023308;28;20045;-80
2021/12/05 14:27:24;;;;;;;5.38;1.63;;;4.50;99.90;;;;;;5023493;28;20069;-81
2021/12/05 14:29:52;;;;;;;3.67;1.20;;;4.50;99.90;;;;;;5027719;28;20049;-81
2021/12/05 14:32:31;;;;;;;4.07;1.15;;;4.40;99.90;;;;;;5029553;28;20515;-80
2021/12/05 14:35:06;;;;;;;9.57;2.10;;;4.50;99.90;;;;;;5029644;28;20069;-81
2021/12/05 14:37:34;;;;;;;4.18;2.22;;;4.50;99.90;;;;;;5029298;28;20056;-80
2021/12/05 14:40:09;;;;;;;5.35;2.10;;;4.40;99.90;;;;;;5047167;28;20079;-81
2021/12/05 14:42:39;;;;;;;5.95;2.47;;;4.40;99.90;;;;;;5046943;28;20049;-81
2021/12/05 14:45:11;;;;;;;5.60;2.05;;;4.30;99.90;;;;;;5046680;28;20068;-81
2021/12/05 14:47:40;;;;;;;4.17;2.10;;;4.20;99.90;;;;;;5029511;28;20046;-80
2021/12/05 14:50:11;;;;;;;7.72;2.25;;;4.10;99.90;;;;;;5028458;28;20045;-81
2021/12/05 14:52:40;;;;;;;4.03;2.03;;;4.00;99.90;;;;;;5026151;28;20136;-79
2021/12/05 14:55:10;;;;;;;10.23;2.60;;;3.90;99.90;;;;;;5045233;28;20084;-80
2021/12/05 14:57:44;;;;;;;4.95;2.17;;;3.80;99.90;;;;;;5024143;28;20049;-80
2021/12/05 15:00:12;;;;;;;;;;;3.80;99.90;;;;;;5042424;28;20072;-80
2021/12/05 15:02:40;;;;;;;5.90;2.85;;;3.60;99.90;;;;;;5024842;28;19927;-80
2021/12/05 15:05:14;;;;;;;6.15;3.28;;;3.40;99.90;;;;;;5042498;28;20068;-80
2021/12/05 15:07:43;;;;;;;2.78;1.52;;;3.20;99.90;;;;;;5042820;28;20049;-80
2021/12/05 15:10:17;;;;;;;5.72;1.90;;;3.10;99.90;;;;;;5024885;28;20506;-81
2021/12/05 15:12:44;;;;;;;1.85;1.60;;;3.10;99.90;;;;;;5042500;28;20049;-80
2021/12/05 15:15:13;;;;;;;5.38;1.92;;;3.00;99.90;;;;;;5025260;28;20052;-80
2021/12/05 15:17:41;;;;;;;4.63;1.83;;;3.00;99.90;;;;;;5024793;28;20076;-80
2021/12/05 15:20:18;;;;;;;3.08;2.03;;;2.90;99.90;;;;;;5043066;28;20099;-78
2021/12/05 15:22:55;;;;;;;3.58;2.35;;;2.90;99.90;;;;;;5045205;28;20072;-80
2021/12/05 15:25:27;;;;;;;4.63;2.60;;;2.70;99.90;;;;;;5027014;28;20422;-80
2021/12/05 15:27:56;;;;;;;6.67;3.70;;;2.70;99.90;;;;;;5027670;28;20045;-82
2021/12/05 15:30:26;;;;;;;16.80;8.27;;;2.70;99.90;;;;;;5028703;28;20300;-81
2021/12/05 15:33:01;;;;;;;10.48;6.15;;;2.60;99.90;;;;;;5029714;28;20073;-80
2021/12/05 15:35:28;;;;;;;23.90;10.18;;;2.60;99.90;;;;;;5026803;28;20115;-80
2021/12/05 15:37:58;;;;;;;17.17;8.40;;;2.50;99.90;;;;;;5026336;28;20049;-81
2021/12/05 15:40:27;;;;;;;24.65;13.25;;;2.50;99.90;;;;;;5030764;28;20060;-82
2021/12/05 15:43:16;;;;;;;19.55;8.98;;;2.40;99.90;;;;;;5044780;28;20041;-80
2021/12/05 15:45:47;;;;;;;12.63;6.38;;;2.30;99.90;;;;;;5062245;28;20072;-79
2021/12/05 15:48:27;;;;;;;12.15;5.75;;;2.30;99.90;;;;;;5042234;28;20044;-81
2021/12/05 15:50:56;;;;;;;13.73;7.75;;;2.20;99.90;;;;;;5060536;28;20049;-79
2021/12/05 15:53:25;;;;;;;14.68;8.07;;;2.20;99.90;;;;;;5027006;28;20048;-79
2021/12/05 15:55:59;;;;;;;20.75;8.85;;;2.10;99.90;;;;;;5061933;28;20049;-80
2021/12/05 15:58:38;;;;;;;14.18;5.25;;;1.90;99.90;;;;;;5043195;28;20048;-80
2021/12/05 16:01:12;;;;;;;13.38;5.95;;;1.80;99.90;;;;;;5042998;28;20455;-79
2021/12/05 16:03:39;;;;;;;9.20;4.47;;;1.70;99.90;;;;;;5059777;28;20063;-80
2021/12/05 16:06:06;;;;;;;10.18;7.90;;;1.50;99.90;;;;;;5041732;28;20049;-80
2021/12/05 16:08:33;;;;;;;13.07;5.25;;;1.40;99.90;;;;;;5061063;28;20056;-79
2021/12/05 16:11:01;;;;;;;9.50;5.13;;;1.20;99.90;;;;;;5043546;28;20123;-80
2021/12/05 16:13:42;;;;;;;4.32;3.92;;;1.20;99.90;;;;;;5041775;28;20096;-79
2021/12/05 16:16:17;;;;;;;10.68;5.50;;;1.10;99.90;;;;;;5045357;28;20045;-80
2021/12/05 16:18:49;;;;;;;12.05;5.30;;;1.00;99.90;;;;;;5061090;28;20060;-79
2021/12/05 16:21:42;;;;;;;7.83;5.07;;;0.90;99.90;;;;;;5042696;28;20170;-79
2021/12/05 16:24:17;;;;;;;8.10;4.88;;;0.70;99.90;;;;;;5039209;28;20053;-79
2021/12/05 16:26:48;;;;;;;6.40;4.32;;;0.60;99.90;;;;;;5063726;28;20061;-83
2021/12/05 16:29:23;;;;;;;5.78;4.38;;;0.50;99.90;;;;;;5060007;28;20069;-79
2021/12/05 16:31:53;;;;;;;11.35;5.10;;;0.40;99.90;;;;;;5042159;28;20456;-82
2021/12/05 16:34:30;;;;;;;12.43;5.53;;;0.20;99.90;;;;;;5062211;28;20052;-82
2021/12/05 16:37:00;;;;;;;6.65;4.72;;;0.10;99.90;;;;;;5062936;28;20053;-84
2021/12/05 16:39:40;;;;;;;11.07;5.40;;;0.00;99.90;;;;;;5060961;28;20075;-82
2021/12/05 16:42:09;;;;;;;6.22;5.00;;;0.00;99.90;;;;;;5044677;28;20494;-82
2021/12/05 16:44:39;;;;;;;10.55;5.00;;;0.00;99.90;;;;;;5046299;28;20084;-80
2021/12/05 16:47:14;;;;;;;7.03;4.47;;;-0.20;99.90;;;;;;5043200;28;20079;-81
2021/12/05 16:49:44;;;;;;;11.77;5.90;;;-0.20;99.90;;;;;;5042179;28;20052;-79
2021/12/05 16:52:36;;;;;;;11.32;7.03;;;-0.30;99.90;;;;;;5040378;28;20080;-79
2021/12/05 16:55:16;;;;;;;21.20;11.43;;;-0.40;99.90;;;;;;5039023;28;20087;-79
2021/12/05 16:57:55;;;;;;;22.23;12.05;;;-0.40;99.90;;;;;;5040030;28;20084;-80
2021/12/05 17:00:26;;;;;;;18.35;10.68;;;-0.60;99.90;;;;;;5027863;28;20061;-79
2021/12/05 17:02:57;;;;;;;17.00;7.90;;;-0.80;99.90;;;;;;5042058;28;20041;-80
2021/12/05 17:05:36;;;;;;;16.48;8.77;;;-0.90;99.90;;;;;;5045859;28;20041;-82
2021/12/05 17:08:24;;;;;;;15.20;9.18;;;-0.90;99.90;;;;;;5027747;28;20073;-83
2021/12/05 17:10:59;;;;;;;17.92;8.65;;;-0.90;99.90;;;;;;5028468;28;20041;-82
2021/12/05 17:13:44;;;;;;;10.30;6.18;;;-0.90;99.90;;;;;;5046617;28;20045;-79
2021/12/05 17:16:20;;;;;;;8.25;5.47;;;-0.90;99.90;;;;;;5025849;28;20080;-80
2021/12/05 17:18:58;;;;;;;8.85;5.80;;;-0.80;99.90;;;;;;5026428;28;20128;-80
2021/12/05 17:21:35;;;;;;;8.90;6.47;;;-0.90;99.90;;;;;;5046991;28;20061;-80
2021/12/05 17:24:16;;;;;;;15.10;7.43;;;-0.90;99.90;;;;;;5025837;28;20507;-81
2021/12/05 17:26:46;;;;;;;8.45;6.10;;;-1.00;99.90;;;;;;5025915;28;20077;-81
2021/12/05 17:29:19;;;;;;;9.20;5.93;;;-1.10;99.90;;;;;;5043201;28;20045;-81
2021/12/05 17:31:48;;;;;;;9.15;6.65;;;-1.10;99.90;;;;;;5026435;28;20053;-81
2021/12/05 17:34:25;;;;;;;11.00;5.88;;;-1.20;99.90;;;;;;5043461;28;20077;-81
2021/12/05 17:36:58;;;;;;;15.68;7.80;;;-1.30;99.90;;;;;;5043965;28;20084;-81
2021/12/05 17:39:32;;;;;;;;;;;-1.30;99.90;;;;;;5024995;28;20395;-81
2021/12/05 17:42:05;;;;;;;22.55;13.55;;;-1.30;99.90;;;;;;5026441;28;19928;-81
2021/12/05 17:44:33;;;;;;;17.23;10.60;;;-1.30;99.90;;;;;;5043290;28;20072;-81
2021/12/05 17:47:03;;;;;;;54.00;21.85;;;-1.40;99.90;;;;;;5041603;28;20129;-82
2021/12/05 17:49:32;;;;;;;25.65;12.52;;;-1.40;99.90;;;;;;5041410;28;20052;-81
2021/12/05 17:52:00;;;;;;;28.17;12.77;;;-1.30;99.90;;;;;;5040424;28;20049;-81
2021/12/05 17:54:56;;;;;;;17.52;8.82;;;-1.60;99.90;;;;;;5030405;28;20042;-82
2021/12/05 17:57:38;;;;;;;14.02;7.10;;;-1.60;99.90;;;;;;5048773;28;20112;-81
2021/12/05 18:00:23;;;;;;;23.83;10.77;;;-1.70;99.90;;;;;;5036040;28;20144;-82
2021/12/05 18:02:53;;;;;;;15.20;9.50;;;-1.60;99.90;;;;;;5046248;28;20053;-82
2021/12/05 18:05:26;;;;;;;14.05;8.43;;;-1.60;99.90;;;;;;5046632;28;20087;-82
2021/12/05 18:07:57;;;;;;;11.55;7.00;;;-1.50;99.90;;;;;;5062906;28;20562;-82
2021/12/05 18:10:30;;;;;;;14.80;8.65;;;-1.50;99.90;;;;;;5044616;28;20119;-81
2021/12/05 18:12:59;;;;;;;;;;;-1.60;99.90;;;;;;5045668;28;20048;-82
2021/12/05 18:15:54;;;;;;;18.95;8.50;;;-1.50;99.90;;;;;;5047455;28;19928;-82
2021/12/05 18:18:23;;;;;;;14.93;9.32;;;-1.60;99.90;;;;;;5044667;28;20503;-82
2021/12/05 18:20:50;;;;;;;12.10;7.05;;;-1.60;99.90;;;;;;5062580;28;20072;-82
2021/12/05 18:23:17;;;;;;;19.25;7.00;;;-1.70;99.90;;;;;;5063154;28;20092;-82
2021/12/05 18:25:44;;;;;;;12.00;6.72;;;-1.70;99.90;;;;;;5045306;28;20506;-82